Time;durP1;ratioP1;P1;durP2;ratioP2;P2;SDS_P1;SDS_P2;PMS_P1;PMS_P2;Temp;Humidity;BMP_temperature;BMP_pressure;BME280_temperature;BME280_humidity;BME280_pressure;Samples;Min_cycle;Max_cycle;Signal;HPM_P1;HPM_P2
2022/11/22 00:02:14;;;;;;;18.60;10.10;;;6.70;99.90;;;;;;5091010;28;20557;-79
2022/11/22 00:04:40;;;;;;;20.70;11.20;;;6.70;99.90;;;;;;5078188;28;20505;-79
2022/11/22 00:07:06;;;;;;;22.48;12.82;;;6.60;99.90;;;;;;5083489;28;20023;-79
2022/11/22 00:09:31;;;;;;;24.38;12.40;;;6.60;99.90;;;;;;5082661;28;20564;-79
2022/11/22 00:11:57;;;;;;;22.48;12.45;;;6.60;99.90;;;;;;5069238;28;20104;-79
2022/11/22 00:14:23;;;;;;;19.75;11.23;;;6.60;99.90;;;;;;5069278;28;20494;-79
2022/11/22 00:16:48;;;;;;;17.85;10.18;;;6.60;99.90;;;;;;5077271;28;20031;-79
2022/11/22 00:19:14;;;;;;;20.65;11.27;;;6.80;99.90;;;;;;5077674;28;20596;-79
2022/11/22 00:21:40;;;;;;;23.23;10.60;;;6.70;99.90;;;;;;5077419;28;20024;-78
2022/11/22 00:24:06;;;;;;;13.68;9.30;;;6.70;99.90;;;;;;5077339;28;20052;-79
2022/11/22 00:26:31;;;;;;;16.92;10.15;;;6.60;99.90;;;;;;5077569;28;20112;-79
2022/11/22 00:28:57;;;;;;;14.38;8.18;;;6.60;99.90;;;;;;5089340;28;20531;-79
2022/11/22 00:31:23;;;;;;;14.32;7.90;;;6.60;99.90;;;;;;5090660;28;20086;-79
2022/11/22 00:33:48;;;;;;;17.50;9.30;;;6.50;99.90;;;;;;5090451;28;20077;-79
2022/11/22 00:36:16;;;;;;;13.73;8.73;;;6.40;99.90;;;;;;5090700;28;20020;-79
2022/11/22 00:38:42;;;;;;;16.30;8.57;;;6.40;99.90;;;;;;5077078;28;20090;-79
2022/11/22 00:41:08;;;;;;;16.00;9.05;;;6.40;99.90;;;;;;5075181;28;20099;-78
2022/11/22 00:43:34;;;;;;;14.13;9.00;;;6.40;99.90;;;;;;5075913;28;20036;-78
2022/11/22 00:46:00;;;;;;;13.48;8.65;;;6.40;99.90;;;;;;5084208;28;20053;-79
2022/11/22 00:48:26;;;;;;;13.60;8.35;;;6.50;99.90;;;;;;5083796;28;20093;-79
2022/11/22 00:50:52;;;;;;;14.93;7.85;;;6.50;99.90;;;;;;5071011;28;20013;-79
2022/11/22 00:53:18;;;;;;;18.50;7.63;;;6.60;99.90;;;;;;5081473;28;20024;-78
2022/11/22 00:55:47;;;;;;;14.20;6.22;;;6.70;99.90;;;;;;5075439;28;20826;-79
2022/11/22 00:58:13;;;;;;;14.82;5.32;;;6.70;99.90;;;;;;5088275;28;20059;-79
2022/11/22 01:00:39;;;;;;;14.52;5.22;;;6.60;99.90;;;;;;5070263;28;20497;-79
2022/11/22 01:03:05;;;;;;;7.15;3.08;;;6.60;99.90;;;;;;5069677;28;20483;-79
2022/11/22 01:05:31;;;;;;;11.18;3.42;;;6.60;99.90;;;;;;5075938;28;20032;-79
2022/11/22 01:07:56;;;;;;;8.35;3.33;;;6.60;99.90;;;;;;5076776;28;20036;-79
2022/11/22 01:10:23;;;;;;;8.52;2.65;;;6.70;99.90;;;;;;5070020;28;20028;-79
2022/11/22 01:12:49;;;;;;;9.95;2.05;;;6.70;99.90;;;;;;5070113;28;20036;-78
2022/11/22 01:15:14;;;;;;;7.45;1.73;;;6.70;99.90;;;;;;5068157;28;20024;-79
2022/11/22 01:17:40;;;;;;;2.80;1.10;;;6.80;99.90;;;;;;5069527;28;20112;-79
2022/11/22 01:20:07;;;;;;;4.40;1.08;;;6.70;99.90;;;;;;5068776;28;20028;-79
2022/11/22 01:22:32;;;;;;;3.28;1.05;;;6.70;99.90;;;;;;5073613;28;20028;-79
2022/11/22 01:24:58;;;;;;;3.85;1.20;;;6.70;99.90;;;;;;5072466;28;20110;-78
2022/11/22 01:27:24;;;;;;;3.58;1.02;;;6.70;99.90;;;;;;5088340;28;20092;-79
2022/11/22 01:29:49;;;;;;;3.75;0.90;;;6.60;99.90;;;;;;5092436;28;20023;-78
2022/11/22 01:32:15;;;;;;;2.75;1.00;;;6.60;99.90;;;;;;5093578;28;20060;-79
2022/11/22 01:34:41;;;;;;;5.68;1.48;;;6.60;99.90;;;;;;5093788;28;20504;-79
2022/11/22 01:37:06;;;;;;;2.42;0.93;;;6.50;99.90;;;;;;5093694;28;20146;-78
2022/11/22 01:39:32;;;;;;;2.53;1.23;;;6.50;99.90;;;;;;5074659;28;20029;-79
2022/11/22 01:41:58;;;;;;;3.40;1.00;;;6.50;99.90;;;;;;5081924;28;20057;-79
2022/11/22 01:44:27;;;;;;;4.30;1.50;;;6.50;99.90;;;;;;5081584;28;20513;-79
2022/11/22 01:47:14;;;;;;;3.88;1.55;;;6.50;99.90;;;;;;5084049;28;20493;-79
2022/11/22 01:49:54;;;;;;;5.57;1.25;;;6.50;99.90;;;;;;5071697;28;20022;-78
2022/11/22 01:52:23;;;;;;;4.80;1.15;;;6.50;99.90;;;;;;5073398;28;20552;-79
2022/11/22 01:54:57;;;;;;;2.88;1.02;;;6.50;99.90;;;;;;5072929;28;20083;-79
2022/11/22 01:57:26;;;;;;;3.72;1.23;;;6.50;99.90;;;;;;5072713;28;20024;-79
2022/11/22 01:59:58;;;;;;;7.63;1.85;;;6.50;99.90;;;;;;5073465;28;20052;-79
2022/11/22 02:02:24;;;;;;;3.80;1.10;;;6.50;99.90;;;;;;5080921;28;20050;-79
2022/11/22 02:04:53;;;;;;;4.00;1.10;;;6.50;99.90;;;;;;5093193;28;20032;-79
2022/11/22 02:07:24;;;;;;;3.80;1.02;;;6.50;99.90;;;;;;5085824;28;20036;-79
2022/11/22 02:09:52;;;;;;;2.53;1.20;;;6.60;99.90;;;;;;5084454;28;20024;-79
2022/11/22 02:12:21;;;;;;;1.58;0.85;;;6.50;99.90;;;;;;5073117;28;20047;-79
2022/11/22 02:14:48;;;;;;;3.38;0.85;;;6.50;99.90;;;;;;5073156;28;20546;-79
2022/11/22 02:17:13;;;;;;;3.42;0.60;;;6.40;99.90;;;;;;5072426;28;20497;-79
2022/11/22 02:19:42;;;;;;;3.00;0.80;;;6.40;99.90;;;;;;5073198;28;20020;-80
2022/11/22 02:22:19;;;;;;;5.60;0.85;;;6.40;99.90;;;;;;5072753;28;20103;-80
2022/11/22 02:24:53;;;;;;;4.82;1.10;;;6.40;99.90;;;;;;5072646;28;20059;-80
2022/11/22 02:27:18;;;;;;;3.10;0.70;;;6.30;99.90;;;;;;5085792;28;20028;-80
2022/11/22 02:29:44;;;;;;;3.83;0.65;;;6.40;99.90;;;;;;5091480;28;20020;-80
2022/11/22 02:32:10;;;;;;;5.18;1.02;;;6.30;99.90;;;;;;5092163;28;20028;-80
2022/11/22 02:34:47;;;;;;;1.40;0.65;;;6.30;99.90;;;;;;5091445;28;20542;-80
2022/11/22 02:37:19;;;;;;;1.90;0.70;;;6.30;99.90;;;;;;5092572;28;20081;-80
2022/11/22 02:39:46;;;;;;;;;;;6.20;99.90;;;;;;5072057;28;20035;-80
2022/11/22 02:42:12;;;;;;;3.70;0.80;;;6.30;99.90;;;;;;5071720;28;19931;-80
2022/11/22 02:44:40;;;;;;;1.83;0.70;;;6.30;99.90;;;;;;5071968;28;20036;-80
2022/11/22 02:47:06;;;;;;;3.92;0.90;;;6.40;99.90;;;;;;5072754;28;20036;-79
2022/11/22 02:49:31;;;;;;;2.60;0.70;;;6.30;99.90;;;;;;5092506;28;20016;-80
2022/11/22 02:51:57;;;;;;;2.72;0.50;;;6.30;99.90;;;;;;5091325;28;20456;-79
2022/11/22 02:54:22;;;;;;;2.25;0.75;;;6.30;99.90;;;;;;5092882;28;20485;-79
2022/11/22 02:56:48;;;;;;;2.22;0.65;;;6.20;99.90;;;;;;5092237;28;20479;-79
2022/11/22 02:59:14;;;;;;;5.07;1.65;;;6.20;99.90;;;;;;5073067;28;20540;-79
2022/11/22 03:01:41;;;;;;;1.85;0.70;;;6.20;99.90;;;;;;5072310;28;20068;-79
2022/11/22 03:04:06;;;;;;;3.35;1.23;;;6.20;99.90;;;;;;5071939;28;20028;-79
2022/11/22 03:06:32;;;;;;;2.33;0.50;;;6.20;99.90;;;;;;5070523;28;20401;-79
2022/11/22 03:08:57;;;;;;;1.73;0.55;;;6.20;99.90;;;;;;5071955;28;20095;-79
2022/11/22 03:11:23;;;;;;;2.97;0.55;;;6.20;99.90;;;;;;5071825;28;20536;-79
2022/11/22 03:13:49;;;;;;;1.77;0.98;;;6.20;99.90;;;;;;5071720;28;20016;-79
2022/11/22 03:16:15;;;;;;;1.95;0.63;;;6.20;99.90;;;;;;5072031;28;20104;-79
2022/11/22 03:18:41;;;;;;;2.15;0.80;;;6.20;99.90;;;;;;5071557;28;20063;-79
2022/11/22 03:21:08;;;;;;;2.13;0.50;;;6.20;99.90;;;;;;5071809;28;20025;-79
2022/11/22 03:23:34;;;;;;;1.88;0.70;;;6.20;99.90;;;;;;5071702;28;20082;-79
2022/11/22 03:26:06;;;;;;;3.30;1.20;;;6.30;99.90;;;;;;5073765;28;20072;-79
2022/11/22 03:28:32;;;;;;;2.08;0.63;;;6.30;99.90;;;;;;5091614;28;20100;-79
2022/11/22 03:30:58;;;;;;;2.38;0.57;;;6.30;99.90;;;;;;5090301;28;20497;-79
2022/11/22 03:33:23;;;;;;;3.17;0.70;;;6.30;99.90;;;;;;5091741;28;20440;-79
2022/11/22 03:35:49;;;;;;;2.80;0.70;;;6.30;99.90;;;;;;5091444;28;20039;-79
2022/11/22 03:38:14;;;;;;;1.58;0.52;;;6.40;99.90;;;;;;5083188;28;20024;-79
2022/11/22 03:40:45;;;;;;;2.92;0.57;;;6.40;99.90;;;;;;5070113;28;20485;-79
2022/11/22 03:43:11;;;;;;;2.90;0.57;;;6.40;99.90;;;;;;5070554;28;20482;-79
2022/11/22 03:45:36;;;;;;;2.75;0.80;;;6.50;99.90;;;;;;5071405;28;20108;-79
2022/11/22 03:48:02;;;;;;;4.05;0.75;;;6.50;99.90;;;;;;5080215;28;20494;-79
2022/11/22 03:50:28;;;;;;;1.77;0.80;;;6.40;99.90;;;;;;5091332;28;20103;-80
2022/11/22 03:52:53;;;;;;;3.88;0.80;;;6.40;99.90;;;;;;5082090;28;20394;-79
2022/11/22 03:55:19;;;;;;;4.13;1.05;;;6.40;99.90;;;;;;5071076;28;20116;-79
2022/11/22 03:57:45;;;;;;;2.10;0.50;;;6.30;99.90;;;;;;5070819;28;20031;-79
2022/11/22 04:00:11;;;;;;;1.55;0.80;;;6.30;99.90;;;;;;5070887;28;20115;-79
2022/11/22 04:02:37;;;;;;;3.55;0.52;;;6.40;99.90;;;;;;5070895;28;20025;-79
2022/11/22 04:05:02;;;;;;;3.88;0.82;;;6.40;99.90;;;;;;5070668;28;20409;-79
2022/11/22 04:07:28;;;;;;;2.63;0.60;;;6.40;99.90;;;;;;5071656;28;20394;-79
2022/11/22 04:09:54;;;;;;;3.70;0.80;;;6.50;99.90;;;;;;5070451;28;20032;-79
2022/11/22 04:12:19;;;;;;;2.10;0.80;;;6.40;99.90;;;;;;5069887;28;20070;-79
2022/11/22 04:17:45;;;;;;;3.15;0.93;;;6.40;99.90;;;;;;5071033;28;20028;-79
2022/11/22 04:23:04;;;;;;;;;;;6.40;99.90;;;;;;5091166;28;20077;-79
2022/11/22 04:25:31;;;;;;;1.73;0.60;;;6.40;99.90;;;;;;5079692;28;19959;-79
2022/11/22 04:27:57;;;;;;;0.95;0.50;;;6.40;99.90;;;;;;5088757;28;20058;-78
2022/11/22 04:32:44;;;;;;;1.88;0.82;;;6.40;99.90;;;;;;5090355;28;20027;-79
2022/11/22 04:33:13;;;;;;;1.65;0.60;;;6.40;99.90;;;;;;5090659;28;20032;-79
2022/11/22 04:35:39;;;;;;;3.80;0.90;;;6.40;99.90;;;;;;5091166;28;20050;-79
2022/11/22 04:38:05;;;;;;;1.98;0.47;;;6.40;99.90;;;;;;5080949;28;20033;-79
2022/11/22 04:40:32;;;;;;;1.05;0.50;;;6.40;99.90;;;;;;5069678;28;20032;-79
2022/11/22 04:45:43;;;;;;;3.65;0.80;;;6.50;99.90;;;;;;5070542;28;20544;-80
2022/11/22 04:48:11;;;;;;;2.53;0.50;;;6.40;99.90;;;;;;5079020;28;20061;-80
2022/11/22 04:53:23;;;;;;;2.00;0.85;;;6.40;99.90;;;;;;5090712;28;20119;-81
2022/11/22 04:55:49;;;;;;;3.67;0.85;;;6.40;99.90;;;;;;5089515;28;20262;-81
2022/11/22 04:58:15;;;;;;;2.08;0.50;;;6.40;99.90;;;;;;5079361;28;20024;-80
2022/11/22 05:00:41;;;;;;;2.03;0.70;;;6.40;99.90;;;;;;5089614;28;20036;-80
2022/11/22 05:03:07;;;;;;;2.50;0.77;;;6.50;99.90;;;;;;5089998;28;20051;-80
2022/11/22 05:05:38;;;;;;;2.80;0.80;;;6.40;99.90;;;;;;5089151;28;20032;-80
2022/11/22 05:08:05;;;;;;;5.10;0.70;;;6.40;99.90;;;;;;5088813;28;20020;-80
2022/11/22 05:10:55;;;;;;;4.22;0.80;;;6.40;99.90;;;;;;5090165;28;20073;-80
2022/11/22 05:13:18;;;;;;;4.65;0.70;;;6.50;99.90;;;;;;5090191;28;20398;-79
2022/11/22 05:15:43;;;;;;;3.20;0.65;;;6.50;99.90;;;;;;5090165;28;20035;-79
2022/11/22 05:18:09;;;;;;;1.15;0.50;;;6.50;99.90;;;;;;5088681;28;20020;-79
2022/11/22 05:20:35;;;;;;;4.55;0.90;;;6.50;99.90;;;;;;5090310;28;20445;-80
2022/11/22 05:25:46;;;;;;;3.10;0.95;;;6.50;99.90;;;;;;5089813;28;20059;-80
2022/11/22 05:28:11;;;;;;;4.90;1.10;;;6.60;99.90;;;;;;5088719;28;20409;-79
2022/11/22 05:30:41;;;;;;;7.75;1.10;;;6.50;99.90;;;;;;5088508;28;20166;-80
2022/11/22 05:33:07;;;;;;;2.60;0.80;;;6.50;99.90;;;;;;5090146;28;20028;-79
2022/11/22 05:35:33;;;;;;;1.25;0.60;;;6.50;99.90;;;;;;5076687;28;20036;-79
2022/11/22 05:37:58;;;;;;;3.45;1.05;;;6.40;99.90;;;;;;5075600;28;20094;-79
2022/11/22 05:40:25;;;;;;;5.45;0.95;;;6.40;99.90;;;;;;5069931;28;20103;-79
2022/11/22 05:42:51;;;;;;;3.38;0.70;;;6.40;99.90;;;;;;5068144;28;20033;-78
2022/11/22 05:45:18;;;;;;;2.47;1.00;;;6.40;99.90;;;;;;5069437;28;20028;-79
2022/11/22 05:47:44;;;;;;;2.60;1.02;;;6.40;99.90;;;;;;5076733;28;20043;-79
2022/11/22 05:50:11;;;;;;;5.90;1.67;;;6.40;99.90;;;;;;5089737;28;20036;-77
2022/11/22 05:52:37;;;;;;;5.15;1.20;;;6.40;99.90;;;;;;5082991;28;20028;-78
2022/11/22 05:55:03;;;;;;;7.03;1.45;;;6.50;99.90;;;;;;5069388;28;20555;-78
2022/11/22 05:57:30;;;;;;;2.13;0.82;;;6.50;99.90;;;;;;5069925;28;20024;-78
2022/11/22 05:59:56;;;;;;;1.42;0.82;;;6.50;99.90;;;;;;5069372;28;20078;-78
2022/11/22 06:02:22;;;;;;;2.95;1.20;;;6.40;99.90;;;;;;5068890;28;20433;-78
2022/11/22 06:04:47;;;;;;;3.70;0.88;;;6.50;99.90;;;;;;5069520;28;20049;-78
2022/11/22 06:07:13;;;;;;;3.97;0.95;;;6.50;99.90;;;;;;5071989;28;20028;-78
2022/11/22 06:09:39;;;;;;;1.95;0.73;;;6.50;99.90;;;;;;5072917;28;20017;-78
2022/11/22 06:12:04;;;;;;;3.70;1.10;;;6.50;99.90;;;;;;5072984;28;20032;-78
2022/11/22 06:14:30;;;;;;;3.05;0.93;;;6.60;99.90;;;;;;5084812;28;20031;-78
2022/11/22 06:16:56;;;;;;;4.68;1.17;;;6.50;99.90;;;;;;5072462;28;20208;-78
2022/11/22 06:19:22;;;;;;;1.98;0.77;;;6.50;99.90;;;;;;5073387;28;20028;-78
2022/11/22 06:21:47;;;;;;;1.42;0.60;;;6.50;99.90;;;;;;5072811;28;20033;-79
2022/11/22 06:24:13;;;;;;;2.80;0.82;;;6.50;99.90;;;;;;5071930;28;20052;-79
2022/11/22 06:26:39;;;;;;;3.03;1.08;;;6.50;99.90;;;;;;5080998;28;20024;-78
2022/11/22 06:29:04;;;;;;;2.22;1.05;;;6.50;99.90;;;;;;5092869;28;20509;-78
2022/11/22 06:31:30;;;;;;;3.00;0.73;;;6.50;99.90;;;;;;5093106;28;20545;-79
2022/11/22 06:34:01;;;;;;;2.33;0.90;;;6.50;99.90;;;;;;5092733;28;20023;-79
2022/11/22 06:36:29;;;;;;;3.42;1.42;;;6.50;99.90;;;;;;5092951;28;20042;-79
2022/11/22 06:38:55;;;;;;;8.60;1.20;;;6.50;99.90;;;;;;5078087;28;20028;-79
2022/11/22 06:41:24;;;;;;;3.63;1.58;;;6.50;99.90;;;;;;5070467;28;20028;-78
2022/11/22 06:43:51;;;;;;;3.50;0.93;;;6.60;99.90;;;;;;5072884;28;20108;-78
2022/11/22 06:46:18;;;;;;;4.47;0.82;;;6.60;99.90;;;;;;5072939;28;20028;-78
2022/11/22 06:48:44;;;;;;;1.63;0.63;;;6.50;99.90;;;;;;5087385;28;20026;-78
2022/11/22 06:51:22;;;;;;;2.40;0.68;;;6.50;99.90;;;;;;5092522;28;20028;-78
2022/11/22 06:53:49;;;;;;;1.90;0.60;;;6.50;99.90;;;;;;5091912;28;20028;-78
2022/11/22 06:56:19;;;;;;;4.85;0.82;;;6.40;99.90;;;;;;5092075;28;20089;-78
2022/11/22 06:58:46;;;;;;;3.78;0.80;;;6.50;99.90;;;;;;5075889;28;20024;-78
2022/11/22 07:01:15;;;;;;;2.95;1.00;;;6.40;99.90;;;;;;5070600;28;20040;-78
2022/11/22 07:03:41;;;;;;;1.58;0.50;;;6.40;99.90;;;;;;5070521;28;20029;-78
2022/11/22 07:06:09;;;;;;;2.22;0.90;;;6.40;99.90;;;;;;5083226;28;20073;-78
2022/11/22 07:08:36;;;;;;;2.88;1.10;;;6.40;99.90;;;;;;5072599;28;20563;-78
2022/11/22 07:11:13;;;;;;;3.13;0.90;;;6.40;99.90;;;;;;5072097;28;20104;-78
2022/11/22 07:13:39;;;;;;;2.83;0.98;;;6.40;99.90;;;;;;5072018;28;20021;-78
2022/11/22 07:16:07;;;;;;;1.80;1.30;;;6.40;99.90;;;;;;5071770;28;20040;-78
2022/11/22 07:18:32;;;;;;;1.92;1.55;;;6.40;99.90;;;;;;5070823;28;20025;-78
2022/11/22 07:21:13;;;;;;;2.28;1.50;;;6.40;99.90;;;;;;5084808;28;20032;-79
2022/11/22 07:23:41;;;;;;;7.70;1.75;;;6.40;99.90;;;;;;5071584;28;20040;-79
2022/11/22 07:26:06;;;;;;;8.15;2.00;;;6.40;99.90;;;;;;5075138;28;20032;-79
2022/11/22 07:28:32;;;;;;;6.40;2.22;;;6.30;99.90;;;;;;5091959;28;20077;-79
2022/11/22 07:30:59;;;;;;;3.13;1.30;;;6.30;99.90;;;;;;5092089;28;20034;-80
2022/11/22 07:33:25;;;;;;;1.88;1.33;;;6.30;99.90;;;;;;5091669;28;20123;-80
2022/11/22 07:35:51;;;;;;;2.95;1.67;;;6.30;99.90;;;;;;5090459;28;20450;-79
2022/11/22 07:38:16;;;;;;;5.97;2.60;;;6.20;99.90;;;;;;5082021;28;20116;-80
2022/11/22 07:40:42;;;;;;;3.67;2.03;;;6.20;99.90;;;;;;5071520;28;20505;-80
2022/11/22 07:43:08;;;;;;;5.03;1.30;;;6.20;99.90;;;;;;5071523;28;20402;-80
2022/11/22 07:45:33;;;;;;;3.00;1.08;;;6.20;99.90;;;;;;5070992;28;20547;-80
2022/11/22 07:48:00;;;;;;;3.67;1.55;;;6.20;99.90;;;;;;5078544;28;20050;-80
2022/11/22 07:50:26;;;;;;;1.65;1.10;;;6.20;99.90;;;;;;5089801;28;20128;-81
2022/11/22 07:52:59;;;;;;;4.07;0.98;;;6.20;99.90;;;;;;5091156;28;20028;-80
2022/11/22 07:55:26;;;;;;;2.88;1.38;;;6.30;99.90;;;;;;5091510;28;20078;-80
2022/11/22 07:57:58;;;;;;;2.85;1.50;;;6.30;99.90;;;;;;5082104;28;20028;-80
2022/11/22 08:00:23;;;;;;;2.47;1.33;;;6.30;99.90;;;;;;5071475;28;20048;-80
2022/11/22 08:02:49;;;;;;;4.53;1.83;;;6.30;99.90;;;;;;5070413;28;20516;-79
2022/11/22 08:05:15;;;;;;;3.95;2.08;;;6.30;99.90;;;;;;5070570;28;20048;-79
2022/11/22 08:07:48;;;;;;;5.00;2.67;;;6.30;99.90;;;;;;5070938;28;20077;-79
2022/11/22 08:10:15;;;;;;;4.13;2.00;;;6.30;99.90;;;;;;5070680;28;20108;-80
2022/11/22 08:12:41;;;;;;;4.05;1.60;;;6.30;99.90;;;;;;5070531;28;20032;-79
2022/11/22 08:15:08;;;;;;;2.60;1.83;;;6.30;99.90;;;;;;5069372;28;20033;-80
2022/11/22 08:17:33;;;;;;;2.67;1.80;;;6.40;99.90;;;;;;5069153;28;20021;-80
2022/11/22 08:19:59;;;;;;;4.45;2.30;;;6.40;99.90;;;;;;5068589;28;20040;-80
2022/11/22 08:22:25;;;;;;;4.18;2.15;;;6.40;99.90;;;;;;5084444;28;20550;-80
2022/11/22 08:24:50;;;;;;;4.90;2.35;;;6.40;99.90;;;;;;5077879;28;20044;-80
2022/11/22 08:27:16;;;;;;;8.02;2.88;;;6.60;99.90;;;;;;5078372;28;20025;-80
2022/11/22 08:29:42;;;;;;;10.35;3.72;;;6.60;99.90;;;;;;5075003;28;20029;-81
2022/11/22 08:32:07;;;;;;;7.28;3.35;;;6.50;99.90;;;;;;5071488;28;20581;-80
2022/11/22 08:34:33;;;;;;;10.60;4.70;;;6.80;99.90;;;;;;5089740;28;20515;-79
2022/11/22 08:36:58;;;;;;;6.45;3.30;;;6.80;99.90;;;;;;5081040;28;20024;-79
2022/11/22 08:39:24;;;;;;;12.50;4.13;;;6.80;99.90;;;;;;5069822;28;20033;-79
2022/11/22 08:41:50;;;;;;;12.00;3.95;;;6.80;99.90;;;;;;5069042;28;20103;-80
2022/11/22 08:44:16;;;;;;;9.18;3.20;;;6.90;99.90;;;;;;5078165;28;20417;-80
2022/11/22 08:46:41;;;;;;;11.57;3.95;;;7.20;99.90;;;;;;5083960;28;20493;-79
2022/11/22 08:49:09;;;;;;;9.63;4.05;;;7.30;99.90;;;;;;5086447;28;20576;-80
2022/11/22 08:51:35;;;;;;;11.15;4.20;;;7.50;99.90;;;;;;5084212;28;20132;-80
2022/11/22 08:54:01;;;;;;;9.90;4.03;;;7.80;99.90;;;;;;5071002;28;20103;-79
2022/11/22 08:56:27;;;;;;;12.75;4.68;;;8.20;99.90;;;;;;5080187;28;20024;-80
2022/11/22 08:58:53;;;;;;;7.55;3.45;;;8.00;99.90;;;;;;5083651;28;20023;-80
2022/11/22 09:01:20;;;;;;;7.35;2.50;;;7.50;99.90;;;;;;5076177;28;20028;-80
2022/11/22 09:03:46;;;;;;;5.75;2.67;;;7.90;99.90;;;;;;5076634;28;20067;-80
2022/11/22 09:06:17;;;;;;;6.95;2.33;;;9.10;99.90;;;;;;5076504;28;20549;-80
2022/11/22 09:08:42;;;;;;;6.65;2.80;;;11.10;99.90;;;;;;5073719;28;20103;-80
2022/11/22 09:11:11;;;;;;;9.80;3.45;;;10.20;99.90;;;;;;5078595;28;20146;-81
2022/11/22 09:13:37;;;;;;;6.20;2.60;;;8.80;99.90;;;;;;5078820;28;20082;-80
2022/11/22 09:16:05;;;;;;;8.75;2.80;;;8.40;99.90;;;;;;5070197;28;20498;-80
2022/11/22 09:18:31;;;;;;;5.07;2.63;;;8.20;99.90;;;;;;5080128;28;20037;-81
2022/11/22 09:20:58;;;;;;;7.35;2.58;;;8.20;99.90;;;;;;5065792;28;20572;-81
2022/11/22 09:23:24;;;;;;;5.20;2.13;;;8.30;99.90;;;;;;5074412;28;20032;-81
2022/11/22 09:25:58;;;;;;;3.88;2.42;;;8.40;99.90;;;;;;5088383;28;20051;-81
2022/11/22 09:28:24;;;;;;;5.95;2.17;;;8.40;99.90;;;;;;5088679;28;20027;-80
2022/11/22 09:30:57;;;;;;;8.20;2.42;;;8.20;99.90;;;;;;5081009;28;20032;-81
2022/11/22 09:33:22;;;;;;;7.00;2.30;;;8.00;99.90;;;;;;5066066;28;20020;-81
2022/11/22 09:35:49;;;;;;;4.20;2.13;;;7.80;99.90;;;;;;5069623;28;20063;-82
2022/11/22 09:38:15;;;;;;;7.78;2.70;;;8.00;99.90;;;;;;5072584;28;20020;-82
2022/11/22 09:40:45;;;;;;;5.72;1.83;;;8.10;99.90;;;;;;5067410;28;20104;-80
2022/11/22 09:43:52;;;;;;;7.57;2.00;;;8.40;99.90;;;;;;5070861;28;20051;-80
2022/11/22 09:46:18;;;;;;;4.75;1.85;;;8.60;99.90;;;;;;5079574;28;20252;-81
2022/11/22 09:49:02;;;;;;;4.78;1.80;;;8.90;99.90;;;;;;5091783;28;20128;-80
2022/11/22 09:51:56;;;;;;;4.43;1.27;;;9.20;99.90;;;;;;5080377;28;20093;-81
2022/11/22 09:54:27;;;;;;;8.45;2.30;;;9.30;99.90;;;;;;5092175;28;20077;-80
2022/11/22 09:56:57;;;;;;;3.42;1.35;;;9.20;99.90;;;;;;5077950;28;20078;-81
2022/11/22 09:59:31;;;;;;;4.43;1.67;;;9.10;99.90;;;;;;5071453;28;20036;-80
2022/11/22 10:02:09;;;;;;;5.72;1.38;;;9.00;99.90;;;;;;5070391;28;20056;-81
2022/11/22 10:04:39;;;;;;;3.67;1.30;;;8.90;99.90;;;;;;5070808;28;20146;-81
2022/11/22 10:07:13;;;;;;;5.05;1.08;;;8.90;99.90;;;;;;5071358;28;20017;-80
2022/11/22 10:10:00;;;;;;;4.85;1.23;;;8.90;99.90;;;;;;5070844;28;20024;-81
2022/11/22 10:12:58;;;;;;;5.25;1.17;;;9.40;99.90;;;;;;5070802;28;20084;-81
2022/11/22 10:15:45;;;;;;;3.67;1.20;;;9.30;99.90;;;;;;5063755;28;20040;-81
2022/11/22 10:18:21;;;;;;;4.35;1.42;;;9.10;99.90;;;;;;5090302;28;20032;-80
2022/11/22 10:20:47;;;;;;;4.60;1.40;;;9.00;99.90;;;;;;5078660;28;20024;-81
2022/11/22 10:23:22;;;;;;;5.53;1.52;;;8.90;99.90;;;;;;5070167;28;20529;-81
2022/11/22 10:26:10;;;;;;;2.03;0.90;;;8.80;99.90;;;;;;5072623;28;20048;-80
2022/11/22 10:28:47;;;;;;;2.50;0.90;;;8.70;99.90;;;;;;5070521;28;20028;-81
2022/11/22 10:31:19;;;;;;;3.05;1.15;;;8.60;99.90;;;;;;5070649;28;20255;-80
2022/11/22 10:33:50;;;;;;;3.70;0.95;;;8.50;99.90;;;;;;5069295;28;20037;-80
2022/11/22 10:36:40;;;;;;;5.03;1.52;;;8.40;99.90;;;;;;5070670;28;20055;-81
2022/11/22 10:39:14;;;;;;;2.20;1.00;;;8.30;99.90;;;;;;5070458;28;20047;-80
2022/11/22 10:42:03;;;;;;;5.45;1.17;;;8.30;99.90;;;;;;5068810;28;20044;-80
2022/11/22 10:44:31;;;;;;;4.78;1.05;;;8.40;99.90;;;;;;5027079;28;20148;-80
2022/11/22 10:47:27;;;;;;;4.10;1.05;;;8.40;99.90;;;;;;5011564;28;20032;-80
2022/11/22 10:50:02;;;;;;;5.07;1.48;;;8.50;99.90;;;;;;5047842;28;20179;-80
2022/11/22 10:52:36;;;;;;;8.13;1.52;;;8.50;99.90;;;;;;5046986;28;20037;-79
2022/11/22 10:55:14;;;;;;;8.20;1.45;;;8.70;99.90;;;;;;5046944;28;20055;-80
2022/11/22 10:57:43;;;;;;;10.07;1.77;;;8.60;99.90;;;;;;5047687;28;20108;-80
2022/11/22 11:00:23;;;;;;;3.10;1.10;;;8.60;99.90;;;;;;5016216;28;20029;-79
2022/11/22 11:03:10;;;;;;;4.60;1.40;;;8.60;99.90;;;;;;5027933;28;20264;-79
2022/11/22 11:05:52;;;;;;;4.28;1.02;;;8.60;99.90;;;;;;5031163;28;20028;-79
2022/11/22 11:08:50;;;;;;;5.07;1.20;;;8.60;99.90;;;;;;5031770;28;20033;-80
2022/11/22 11:11:15;;;;;;;6.13;1.35;;;8.80;99.90;;;;;;5026692;28;20033;-79
2022/11/22 11:13:46;;;;;;;3.88;1.48;;;8.90;99.90;;;;;;5026690;28;20036;-80
2022/11/22 11:16:18;;;;;;;6.13;1.83;;;8.90;99.90;;;;;;5026727;28;20159;-80
2022/11/22 11:19:07;;;;;;;6.72;1.10;;;8.90;99.90;;;;;;5027098;28;20295;-79
2022/11/22 11:21:34;;;;;;;4.40;1.10;;;8.90;99.90;;;;;;5048520;28;20059;-79
2022/11/22 11:24:00;;;;;;;2.40;1.02;;;8.90;99.90;;;;;;5071378;28;20048;-80
2022/11/22 11:26:29;;;;;;;6.00;1.30;;;9.00;99.90;;;;;;5075736;28;20039;-79
2022/11/22 11:29:16;;;;;;;4.28;1.40;;;9.00;99.90;;;;;;5090422;28;20028;-80
2022/11/22 11:32:06;;;;;;;4.60;1.50;;;9.10;99.90;;;;;;5081611;28;20029;-79
2022/11/22 11:34:33;;;;;;;3.13;1.17;;;9.10;99.90;;;;;;5076508;28;20632;-79
2022/11/22 11:37:00;;;;;;;3.78;1.35;;;9.20;99.90;;;;;;5073098;28;20020;-79
2022/11/22 11:39:32;;;;;;;5.40;1.58;;;9.00;99.90;;;;;;5071038;28;20021;-79
2022/11/22 11:41:58;;;;;;;4.15;0.95;;;8.90;99.90;;;;;;5068609;28;20028;-79
2022/11/22 11:44:36;;;;;;;3.45;1.35;;;8.90;99.90;;;;;;5067129;28;20108;-79
2022/11/22 11:47:03;;;;;;;2.88;1.02;;;8.80;99.90;;;;;;5070537;28;20020;-79
2022/11/22 11:49:31;;;;;;;3.97;1.10;;;8.80;99.90;;;;;;5088229;28;20097;-79
2022/11/22 11:52:02;;;;;;;3.53;0.85;;;8.90;99.90;;;;;;5089284;28;20020;-79
2022/11/22 11:54:37;;;;;;;5.60;1.10;;;9.00;99.90;;;;;;5087524;28;20119;-79
2022/11/22 11:57:03;;;;;;;5.18;1.60;;;8.90;99.90;;;;;;5088061;28;20077;-79
2022/11/22 11:59:35;;;;;;;2.35;1.23;;;8.90;99.90;;;;;;5069224;28;20021;-79
2022/11/22 12:02:09;;;;;;;3.83;1.17;;;8.80;99.90;;;;;;5073635;28;20123;-79
2022/11/22 12:04:45;;;;;;;2.05;1.38;;;8.80;99.90;;;;;;5068546;28;20020;-78
2022/11/22 12:07:26;;;;;;;3.35;1.50;;;8.80;99.90;;;;;;5075354;28;20035;-78
2022/11/22 12:09:54;;;;;;;6.33;1.60;;;8.70;99.90;;;;;;5087557;28;20032;-78
2022/11/22 12:12:28;;;;;;;4.07;1.58;;;8.80;99.90;;;;;;5089088;28;20520;-78
2022/11/22 12:15:11;;;;;;;4.10;1.67;;;8.80;99.90;;;;;;5089161;28;20111;-78
2022/11/22 12:18:08;;;;;;;6.53;1.65;;;8.80;99.90;;;;;;5088624;28;20062;-78
2022/11/22 12:21:01;;;;;;;2.95;1.60;;;8.90;99.90;;;;;;5077871;28;20029;-79
2022/11/22 12:24:09;;;;;;;3.10;1.95;;;9.00;99.90;;;;;;5066798;28;20136;-78
2022/11/22 12:26:34;;;;;;;2.38;1.50;;;9.00;99.90;;;;;;5044847;28;20106;-78
2022/11/22 12:29:00;;;;;;;5.50;1.67;;;8.90;99.90;;;;;;5046330;28;20036;-78
2022/11/22 12:31:36;;;;;;;2.17;1.20;;;9.00;99.90;;;;;;5043656;28;20047;-78
2022/11/22 12:34:25;;;;;;;3.17;1.42;;;9.00;99.90;;;;;;5032057;28;20116;-78
2022/11/22 12:37:05;;;;;;;6.13;1.40;;;9.00;99.90;;;;;;5014095;28;20065;-78
2022/11/22 12:39:34;;;;;;;3.90;1.58;;;9.00;99.90;;;;;;5046500;28;20481;-79
2022/11/22 12:42:12;;;;;;;5.53;1.48;;;8.90;99.90;;;;;;5032809;28;20022;-78
2022/11/22 12:44:45;;;;;;;4.07;1.77;;;9.00;99.90;;;;;;5032812;28;20203;-78
2022/11/22 12:47:17;;;;;;;5.43;1.80;;;9.00;99.90;;;;;;5037337;28;20031;-78
2022/11/22 12:49:47;;;;;;;7.13;1.92;;;9.00;99.90;;;;;;5031469;28;20032;-78
2022/11/22 12:52:16;;;;;;;3.55;1.55;;;8.90;99.90;;;;;;5036442;28;20022;-78
2022/11/22 12:54:52;;;;;;;3.85;1.17;;;8.90;99.90;;;;;;5035674;28;20041;-78
2022/11/22 12:57:50;;;;;;;4.47;1.40;;;8.90;99.90;;;;;;5041354;28;20105;-78
2022/11/22 13:00:21;;;;;;;6.07;1.75;;;9.00;99.90;;;;;;5058399;28;20076;-78
2022/11/22 13:03:02;;;;;;;6.60;2.30;;;8.90;99.90;;;;;;5044957;28;20037;-78
2022/11/22 13:05:35;;;;;;;4.43;2.75;;;8.90;99.90;;;;;;5044875;28;20264;-78
2022/11/22 13:08:04;;;;;;;4.70;2.65;;;8.90;99.90;;;;;;5044460;28;20029;-79
2022/11/22 13:10:53;;;;;;;8.30;3.00;;;8.90;99.90;;;;;;5045931;28;20624;-78
2022/11/22 13:13:24;;;;;;;6.72;2.88;;;8.80;99.90;;;;;;5044213;28;20065;-78
2022/11/22 13:15:54;;;;;;;4.93;2.13;;;8.80;99.90;;;;;;5044997;28;20040;-79
2022/11/22 13:18:26;;;;;;;7.47;2.38;;;8.90;99.90;;;;;;5031644;28;20041;-78
2022/11/22 13:21:18;;;;;;;4.90;2.40;;;8.80;99.90;;;;;;5049364;28;20029;-78
2022/11/22 13:24:21;;;;;;;3.53;1.65;;;8.80;99.90;;;;;;5057819;28;20052;-79